Time;durP1;ratioP1;P1;durP2;ratioP2;P2;SDS_P1;SDS_P2;PMS_P1;PMS_P2;Temp;Humidity;BMP_temperature;BMP_pressure;BME280_temperature;BME280_humidity;BME280_pressure;Samples;Min_cycle;Max_cycle;Signal;HPM_P1;HPM_P2
2023/06/25 00:02:03;;;;;;;17.80;12.10;;;17.10;99.90;;;;;;5073012;28;20078;-67
2023/06/25 00:04:29;;;;;;;14.85;12.00;;;17.10;99.90;;;;;;5073151;28;20028;-67
2023/06/25 00:06:54;;;;;;;20.80;12.85;;;17.10;99.90;;;;;;5073244;28;20029;-66
2023/06/25 00:09:20;;;;;;;13.88;11.50;;;17.10;99.90;;;;;;5073049;28;20063;-67
2023/06/25 00:11:45;;;;;;;26.35;16.17;;;17.00;99.90;;;;;;5072934;28;20078;-67
2023/06/25 00:14:11;;;;;;;23.13;17.50;;;17.00;99.90;;;;;;5073007;28;20032;-67
2023/06/25 00:16:37;;;;;;;20.50;16.13;;;17.10;99.90;;;;;;5073090;28;20059;-66
2023/06/25 00:19:03;;;;;;;20.70;14.63;;;17.00;99.90;;;;;;5073094;28;20111;-66
2023/06/25 00:21:28;;;;;;;19.25;14.50;;;17.00;99.90;;;;;;5073169;28;20029;-67
2023/06/25 00:23:54;;;;;;;18.08;14.52;;;17.00;99.90;;;;;;5072891;28;20025;-66
2023/06/25 00:26:19;;;;;;;21.58;14.93;;;16.90;99.90;;;;;;5072764;28;20422;-66
2023/06/25 00:28:45;;;;;;;20.08;15.85;;;16.80;99.90;;;;;;5073086;28;20036;-66
2023/06/25 00:31:12;;;;;;;21.23;15.70;;;16.80;99.90;;;;;;5072949;28;20082;-66
2023/06/25 00:33:39;;;;;;;19.08;14.10;;;16.70;99.90;;;;;;5072848;28;20025;-66
2023/06/25 00:36:06;;;;;;;20.20;14.98;;;16.70;99.90;;;;;;5073109;28;20086;-66
2023/06/25 00:38:33;;;;;;;21.73;14.63;;;16.70;99.90;;;;;;5072888;28;20436;-66
2023/06/25 00:40:59;;;;;;;20.02;14.18;;;16.70;99.90;;;;;;5071666;28;20029;-67
2023/06/25 00:43:24;;;;;;;19.35;14.85;;;16.70;99.90;;;;;;5072588;28;20035;-66
2023/06/25 00:45:50;;;;;;;17.17;14.52;;;16.60;99.90;;;;;;5072723;28;20024;-66
2023/06/25 00:48:16;;;;;;;21.55;15.02;;;16.60;99.90;;;;;;5072948;28;20120;-67
2023/06/25 00:50:42;;;;;;;25.30;17.20;;;16.60;99.90;;;;;;5072697;28;20037;-66
2023/06/25 00:53:09;;;;;;;27.23;19.35;;;16.70;99.90;;;;;;5072620;28;20142;-66
2023/06/25 00:55:35;;;;;;;26.10;17.98;;;16.70;99.90;;;;;;5072822;28;20024;-66
2023/06/25 00:58:00;;;;;;;23.45;18.27;;;16.70;99.90;;;;;;5072648;28;20040;-67
2023/06/25 01:00:28;;;;;;;25.80;18.85;;;16.60;99.90;;;;;;5072317;28;20052;-66
2023/06/25 01:03:30;;;;;;;26.17;18.42;;;16.60;99.90;;;;;;5072591;28;20119;-66
2023/06/25 01:06:09;;;;;;;26.58;18.17;;;16.60;99.90;;;;;;5071586;28;20071;-66
2023/06/25 01:08:38;;;;;;;23.33;17.58;;;16.60;99.90;;;;;;5076223;28;20533;-67
2023/06/25 01:11:05;;;;;;;26.58;18.33;;;16.60;99.90;;;;;;5076227;28;20029;-67
2023/06/25 01:13:31;;;;;;;23.60;16.80;;;16.50;99.90;;;;;;5076098;28;20497;-66
2023/06/25 01:15:56;;;;;;;21.20;15.52;;;16.50;99.90;;;;;;5076233;28;20025;-66
2023/06/25 01:18:23;;;;;;;20.65;14.30;;;16.50;99.90;;;;;;5076062;28;20041;-66
2023/06/25 01:20:51;;;;;;;17.77;13.30;;;16.50;99.90;;;;;;5075959;28;20025;-66
2023/06/25 01:23:17;;;;;;;19.40;14.23;;;16.50;99.90;;;;;;5075897;28;20030;-66
2023/06/25 01:25:47;;;;;;;20.08;13.75;;;16.50;99.90;;;;;;5075955;28;20028;-66
2023/06/25 01:28:13;;;;;;;22.70;15.85;;;16.40;99.90;;;;;;5075764;28;20021;-66
2023/06/25 01:30:38;;;;;;;28.42;19.58;;;15.50;99.90;;;;;;5075778;28;20028;-66
2023/06/25 01:33:04;;;;;;;29.58;19.48;;;16.40;99.90;;;;;;5075877;28;20116;-66
2023/06/25 01:35:30;;;;;;;22.98;17.02;;;16.40;99.90;;;;;;5075991;28;20033;-66
2023/06/25 01:37:56;;;;;;;24.00;17.08;;;16.30;99.90;;;;;;5075602;28;20029;-66
2023/06/25 01:40:22;;;;;;;23.35;16.42;;;16.30;99.90;;;;;;5075513;28;20025;-66
2023/06/25 01:42:48;;;;;;;21.58;15.48;;;16.30;99.90;;;;;;5075553;28;20486;-66
2023/06/25 01:45:13;;;;;;;20.60;13.85;;;16.20;99.90;;;;;;5075489;28;20035;-66
2023/06/25 01:47:39;;;;;;;25.52;15.43;;;16.20;99.90;;;;;;5075468;28;20035;-66
2023/06/25 01:50:05;;;;;;;22.88;15.52;;;16.30;99.90;;;;;;5075472;28;20510;-66
2023/06/25 01:52:32;;;;;;;21.17;15.25;;;16.20;99.90;;;;;;5075381;28;20134;-67
2023/06/25 01:54:58;;;;;;;19.45;13.73;;;16.20;99.90;;;;;;5075407;28;20111;-66
2023/06/25 01:57:23;;;;;;;23.50;14.60;;;16.20;99.90;;;;;;5073944;28;20119;-66
2023/06/25 01:59:49;;;;;;;21.23;13.75;;;16.10;99.90;;;;;;5074962;28;20131;-67
2023/06/25 02:02:14;;;;;;;20.00;14.52;;;16.10;99.90;;;;;;5075179;28;20486;-66
2023/06/25 02:04:40;;;;;;;17.10;13.70;;;16.00;99.90;;;;;;5075130;28;20052;-67
2023/06/25 02:07:06;;;;;;;16.20;12.38;;;16.10;99.90;;;;;;5075148;28;20442;-67
2023/06/25 02:09:32;;;;;;;17.77;13.82;;;16.00;99.90;;;;;;5075139;28;20059;-66
2023/06/25 02:11:58;;;;;;;19.23;14.07;;;;;;;;;;5074952;28;20079;-66
2023/06/25 02:14:24;;;;;;;18.63;14.30;;;16.10;99.90;;;;;;5074926;28;20036;-67
2023/06/25 02:16:49;;;;;;;21.73;14.68;;;16.10;99.90;;;;;;5074833;28;20032;-66
2023/06/25 02:19:15;;;;;;;16.13;13.20;;;16.10;99.90;;;;;;5074683;28;20032;-67
2023/06/25 02:21:40;;;;;;;18.15;14.50;;;16.00;99.90;;;;;;5074543;28;20146;-67
2023/06/25 02:24:06;;;;;;;18.52;14.32;;;16.00;99.90;;;;;;5074801;28;20048;-67
2023/06/25 02:26:32;;;;;;;15.23;12.18;;;15.90;99.90;;;;;;5074811;28;20031;-66
2023/06/25 02:28:57;;;;;;;20.08;14.93;;;15.90;99.90;;;;;;5074525;28;20108;-67
2023/06/25 02:31:23;;;;;;;19.45;13.90;;;15.90;99.90;;;;;;5074793;28;20028;-66
2023/06/25 02:33:48;;;;;;;17.42;14.23;;;16.00;99.90;;;;;;5074548;28;20567;-67
2023/06/25 02:36:14;;;;;;;20.85;15.45;;;15.90;99.90;;;;;;5074440;28;20067;-67
2023/06/25 02:38:39;;;;;;;17.42;14.85;;;15.90;99.90;;;;;;5074368;28;20068;-67
2023/06/25 02:41:05;;;;;;;22.15;15.07;;;15.90;99.90;;;;;;5074389;28;20122;-66
2023/06/25 02:43:31;;;;;;;19.90;15.45;;;15.90;99.90;;;;;;5074745;28;20028;-66
2023/06/25 02:45:56;;;;;;;22.05;15.50;;;16.00;99.90;;;;;;5074473;28;20060;-66
2023/06/25 02:48:22;;;;;;;19.95;15.18;;;15.90;99.90;;;;;;5074391;28;20047;-66
2023/06/25 02:50:48;;;;;;;17.30;14.90;;;15.90;99.90;;;;;;5074196;28;20478;-66
2023/06/25 02:53:13;;;;;;;19.42;14.18;;;15.90;99.90;;;;;;5074143;28;20030;-67
2023/06/25 02:55:39;;;;;;;16.48;14.32;;;15.90;99.90;;;;;;5074127;28;20032;-67
2023/06/25 02:58:05;;;;;;;21.85;15.77;;;15.90;99.90;;;;;;5074269;28;20433;-66
2023/06/25 03:00:30;;;;;;;19.90;15.52;;;15.80;99.90;;;;;;5074135;28;20074;-67
2023/06/25 03:02:56;;;;;;;23.30;16.52;;;15.80;99.90;;;;;;5074153;28;20032;-67
2023/06/25 03:05:21;;;;;;;19.10;15.45;;;15.80;99.90;;;;;;5073935;28;20138;-66
2023/06/25 03:07:49;;;;;;;24.33;16.95;;;15.80;99.90;;;;;;5074115;28;20032;-66
2023/06/25 03:10:15;;;;;;;18.17;14.13;;;15.80;99.90;;;;;;5073657;28;20063;-67
2023/06/25 03:12:40;;;;;;;19.63;14.75;;;15.80;99.90;;;;;;5074003;28;20109;-67
2023/06/25 03:15:06;;;;;;;25.08;18.60;;;15.80;99.90;;;;;;5073770;28;20021;-67
2023/06/25 03:17:32;;;;;;;26.38;19.83;;;15.90;99.90;;;;;;5073934;28;20501;-67
2023/06/25 03:19:58;;;;;;;23.23;18.77;;;15.90;99.90;;;;;;5073531;28;20099;-67
2023/06/25 03:22:23;;;;;;;23.13;17.63;;;15.90;99.90;;;;;;5073616;28;20028;-66
2023/06/25 03:24:49;;;;;;;19.48;16.00;;;16.00;99.90;;;;;;5073561;28;20025;-66
2023/06/25 03:27:14;;;;;;;27.38;18.77;;;16.00;99.90;;;;;;5073664;28;20021;-66
2023/06/25 03:29:40;;;;;;;19.15;15.85;;;16.00;99.90;;;;;;5073294;28;20466;-67
2023/06/25 03:32:06;;;;;;;19.98;16.05;;;16.00;99.90;;;;;;5073448;28;20038;-67
2023/06/25 03:34:31;;;;;;;23.73;17.85;;;16.00;99.90;;;;;;5073513;28;20067;-67
2023/06/25 03:36:57;;;;;;;23.17;18.90;;;16.10;99.90;;;;;;5073365;28;20033;-67
2023/06/25 03:39:23;;;;;;;24.52;19.13;;;16.10;99.90;;;;;;5073382;28;20020;-67
2023/06/25 03:41:48;;;;;;;22.02;18.52;;;16.20;99.90;;;;;;5073176;28;20086;-67
2023/06/25 03:44:14;;;;;;;24.75;18.92;;;16.20;99.90;;;;;;5073407;28;20029;-67
2023/06/25 03:46:39;;;;;;;25.92;19.65;;;16.20;99.90;;;;;;5073373;28;20039;-67
2023/06/25 03:49:06;;;;;;;19.70;16.42;;;16.30;99.90;;;;;;5073450;28;20394;-67
2023/06/25 03:51:31;;;;;;;20.17;17.38;;;16.40;99.90;;;;;;5073381;28;20036;-67
2023/06/25 03:53:57;;;;;;;24.88;17.45;;;16.50;99.90;;;;;;5073208;28;20039;-67
2023/06/25 03:56:22;;;;;;;24.50;18.13;;;16.60;99.90;;;;;;5073218;28;20024;-67
2023/06/25 03:58:48;;;;;;;23.67;18.77;;;16.60;99.90;;;;;;5072986;28;20101;-67
2023/06/25 04:01:13;;;;;;;22.02;17.35;;;16.60;99.90;;;;;;5072965;28;20401;-67
2023/06/25 04:03:39;;;;;;;24.05;18.98;;;16.60;99.90;;;;;;5073159;28;20028;-67
2023/06/25 04:06:05;;;;;;;24.15;19.27;;;16.70;99.90;;;;;;5073209;28;20099;-67
2023/06/25 04:08:30;;;;;;;24.80;19.23;;;16.80;99.90;;;;;;5073002;28;20020;-67
2023/06/25 04:10:56;;;;;;;23.50;19.23;;;16.80;99.90;;;;;;5073054;28;20039;-67
2023/06/25 04:13:21;;;;;;;20.00;17.85;;;17.00;99.90;;;;;;5073246;28;20051;-67
2023/06/25 04:15:47;;;;;;;24.95;17.55;;;17.00;99.90;;;;;;5073016;28;20032;-68
2023/06/25 04:18:12;;;;;;;24.17;17.92;;;17.10;99.90;;;;;;5073076;28;20414;-67
2023/06/25 04:20:38;;;;;;;24.40;18.02;;;17.20;99.90;;;;;;5072795;28;20024;-67
2023/06/25 04:23:04;;;;;;;23.00;18.70;;;17.30;99.90;;;;;;5073222;28;20025;-67
2023/06/25 04:25:30;;;;;;;22.55;19.13;;;17.40;99.90;;;;;;5072853;28;20036;-67
2023/06/25 04:27:56;;;;;;;20.48;17.20;;;17.50;99.90;;;;;;5072904;28;20021;-67
2023/06/25 04:30:22;;;;;;;22.23;17.98;;;17.60;99.90;;;;;;5072860;28;20032;-67
2023/06/25 04:32:49;;;;;;;20.20;17.02;;;17.80;99.90;;;;;;5072909;28;20037;-67
2023/06/25 04:35:16;;;;;;;19.42;16.23;;;18.20;99.90;;;;;;5072688;28;20024;-67
2023/06/25 04:37:41;;;;;;;21.35;15.98;;;18.90;58.20;;;;;;5072860;28;20029;-67
2023/06/25 04:40:07;;;;;;;20.00;14.32;;;19.40;10.10;;;;;;5072960;28;20428;-67
2023/06/25 04:42:33;;;;;;;20.25;14.52;;;20.10;6.90;;;;;;5075382;28;20470;-67
2023/06/25 04:44:59;;;;;;;15.48;13.32;;;21.50;1.00;;;;;;5076586;28;20035;-67
2023/06/25 04:47:24;;;;;;;16.67;13.00;;;22.90;99.90;;;;;;5076569;28;20470;-68
2023/06/25 04:49:50;;;;;;;13.43;11.40;;;24.00;1.00;;;;;;5076508;28;20021;-65
2023/06/25 04:52:18;;;;;;;12.48;10.55;;;24.80;99.90;;;;;;5076653;28;20024;-65
2023/06/25 04:54:44;;;;;;;13.30;11.10;;;26.00;38.70;;;;;;5076506;28;20044;-66
2023/06/25 04:57:09;;;;;;;11.77;10.35;;;26.50;99.90;;;;;;5076570;28;20052;-66
2023/06/25 04:59:35;;;;;;;12.40;10.15;;;26.90;1.00;;;;;;5076225;28;20045;-65
2023/06/25 05:02:01;;;;;;;13.57;10.30;;;;;;;;;;5076343;28;20498;-66
2023/06/25 05:04:27;;;;;;;12.68;11.18;;;;;;;;;;5076430;28;20103;-66
2023/06/25 05:06:54;;;;;;;19.00;10.48;;;;;;;;;;5076427;28;20028;-66
2023/06/25 05:09:20;;;;;;;11.55;10.20;;;;;;;;;;5076189;28;20402;-66
2023/06/25 05:11:46;;;;;;;12.20;11.00;;;;;;;;;;5076013;28;20024;-66
2023/06/25 05:14:12;;;;;;;11.98;10.77;;;;;;;;;;5076117;28;20039;-66
2023/06/25 05:16:38;;;;;;;12.48;11.25;;;;;;;;;;5076141;28;20028;-66
2023/06/25 05:19:04;;;;;;;14.10;10.52;;;;;;;;;;5076066;28;20025;-66
2023/06/25 05:21:30;;;;;;;12.13;10.55;;;;;;;;;;5075964;28;20039;-68
2023/06/25 05:23:58;;;;;;;13.18;10.48;;;;;;;;;;5075823;28;20115;-66
2023/06/25 05:26:24;;;;;;;11.18;9.88;;;;;;;;;;5074934;28;20103;-66
2023/06/25 05:28:50;;;;;;;10.75;9.75;;;;;;;;;;5076035;28;20067;-66
2023/06/25 05:31:16;;;;;;;9.77;8.88;;;;;;;;;;5075812;28;20175;-66
2023/06/25 05:33:42;;;;;;;11.23;9.15;;;29.20;95.80;;;;;;5075978;28;20035;-66
2023/06/25 05:36:08;;;;;;;12.70;10.25;;;29.20;99.90;;;;;;5075723;28;20032;-66
2023/06/25 05:38:34;;;;;;;10.20;9.20;;;29.20;1.00;;;;;;5075787;28;20470;-66
2023/06/25 05:40:59;;;;;;;10.38;9.27;;;29.50;1.00;;;;;;5075554;28;20040;-66
2023/06/25 05:43:25;;;;;;;9.43;8.40;;;29.90;99.90;;;;;;5075482;28;20028;-66
2023/06/25 05:45:51;;;;;;;9.82;8.27;;;30.60;76.60;;;;;;5075539;28;20390;-66
2023/06/25 05:48:16;;;;;;;9.95;9.05;;;30.80;29.00;;;;;;5075464;28;20032;-66
2023/06/25 05:50:42;;;;;;;10.65;9.65;;;31.30;1.00;;;;;;5075549;28;20037;-66
2023/06/25 05:53:08;;;;;;;11.00;8.50;;;29.90;27.80;;;;;;5075184;28;20036;-66
2023/06/25 05:55:33;;;;;;;11.93;8.75;;;30.30;16.50;;;;;;5075475;28;20155;-66
2023/06/25 05:57:59;;;;;;;10.40;8.35;;;30.80;33.60;;;;;;5075250;28;20024;-66
2023/06/25 06:00:24;;;;;;;9.30;8.38;;;31.60;99.90;;;;;;5073761;28;20469;-66
2023/06/25 06:02:50;;;;;;;9.73;8.25;;;30.70;99.90;;;;;;5075163;28;20039;-66
2023/06/25 06:05:15;;;;;;;8.65;7.75;;;30.90;99.90;;;;;;5075238;28;20032;-66
2023/06/25 06:07:41;;;;;;;9.25;8.25;;;30.70;99.90;;;;;;5075107;28;20536;-66
2023/06/25 06:10:07;;;;;;;9.40;7.55;;;30.90;99.90;;;;;;5074927;28;20029;-66
2023/06/25 06:12:32;;;;;;;9.40;8.27;;;32.20;99.90;;;;;;5075125;28;20104;-66
2023/06/25 06:14:58;;;;;;;8.98;7.90;;;32.40;99.90;;;;;;5073972;28;20044;-67
2023/06/25 06:17:24;;;;;;;9.45;7.47;;;31.60;99.90;;;;;;5074821;28;20474;-66
2023/06/25 06:19:49;;;;;;;10.60;7.40;;;31.10;99.90;;;;;;5073593;28;20074;-66
2023/06/25 06:22:16;;;;;;;8.32;7.53;;;31.40;99.90;;;;;;5075020;28;20466;-66
2023/06/25 06:24:42;;;;;;;8.18;7.00;;;32.10;99.90;;;;;;5074790;28;20095;-66
2023/06/25 06:27:08;;;;;;;7.97;6.60;;;31.30;99.90;;;;;;5074751;28;20032;-66
2023/06/25 06:29:34;;;;;;;7.55;6.57;;;31.90;99.90;;;;;;5074828;28;20038;-67
2023/06/25 06:31:59;;;;;;;7.38;6.68;;;32.90;99.90;;;;;;5074536;28;20039;-67
2023/06/25 06:34:25;;;;;;;9.82;7.07;;;32.00;99.90;;;;;;5074659;28;20029;-67
2023/06/25 06:36:50;;;;;;;7.50;6.47;;;31.30;99.90;;;;;;5074520;28;20033;-67
2023/06/25 06:39:17;;;;;;;7.80;7.00;;;31.70;99.90;;;;;;5074407;28;20025;-67
2023/06/25 06:41:42;;;;;;;7.55;6.72;;;31.40;99.90;;;;;;5074297;28;20461;-67
2023/06/25 06:44:14;;;;;;;8.02;6.88;;;31.50;99.90;;;;;;5074214;28;20107;-67
2023/06/25 06:46:40;;;;;;;7.68;6.57;;;31.20;99.90;;;;;;5073409;28;20099;-67
2023/06/25 06:49:06;;;;;;;7.70;6.78;;;31.60;99.90;;;;;;5074319;28;20035;-67
2023/06/25 06:51:32;;;;;;;7.30;6.50;;;31.60;99.90;;;;;;5073052;28;20033;-67
2023/06/25 06:53:57;;;;;;;9.15;6.97;;;32.80;5.40;;;;;;5074397;28;20032;-67
2023/06/25 06:56:23;;;;;;;8.65;6.68;;;32.20;74.50;;;;;;5074131;28;20450;-67
2023/06/25 06:58:48;;;;;;;7.47;6.63;;;31.80;99.90;;;;;;5073992;28;20128;-67
2023/06/25 07:01:14;;;;;;;7.40;6.65;;;31.30;99.90;;;;;;5074050;28;20043;-67
2023/06/25 07:03:40;;;;;;;7.32;6.63;;;32.30;99.90;;;;;;5073729;28;20024;-67
2023/06/25 07:06:05;;;;;;;7.38;6.68;;;32.10;99.90;;;;;;5072798;28;20028;-67
2023/06/25 07:08:31;;;;;;;8.10;6.47;;;32.30;99.90;;;;;;5073861;28;20025;-67
2023/06/25 07:10:56;;;;;;;8.48;6.57;;;32.70;99.90;;;;;;5074052;28;20470;-67
2023/06/25 07:13:22;;;;;;;7.45;6.70;;;32.30;99.90;;;;;;5073769;28;20078;-67
2023/06/25 07:15:47;;;;;;;7.45;6.78;;;31.60;99.90;;;;;;5073768;28;20036;-67
2023/06/25 07:18:13;;;;;;;7.25;6.65;;;31.70;99.90;;;;;;5073763;28;20498;-67
2023/06/25 07:20:39;;;;;;;9.00;6.78;;;32.00;99.90;;;;;;5073738;28;20068;-67
2023/06/25 07:23:04;;;;;;;7.40;6.68;;;32.20;1.00;;;;;;5073924;28;20055;-67
2023/06/25 07:25:30;;;;;;;7.13;6.40;;;31.90;1.00;;;;;;5073687;28;20394;-67
2023/06/25 07:27:55;;;;;;;8.43;7.13;;;32.00;4.30;;;;;;5072311;28;20056;-66
2023/06/25 07:30:21;;;;;;;9.55;7.55;;;31.60;21.20;;;;;;5073657;28;20025;-67
2023/06/25 07:32:47;;;;;;;10.23;7.15;;;32.10;51.10;;;;;;5073520;28;20025;-66
2023/06/25 07:35:12;;;;;;;8.18;7.40;;;32.00;77.60;;;;;;5073465;28;20060;-67
2023/06/25 07:37:39;;;;;;;9.52;7.18;;;32.30;99.90;;;;;;5073662;28;20029;-67
2023/06/25 07:40:06;;;;;;;8.75;6.97;;;32.40;65.80;;;;;;5073477;28;20587;-67
2023/06/25 07:42:31;;;;;;;7.97;6.70;;;32.00;32.70;;;;;;5072143;28;20032;-67
2023/06/25 07:44:57;;;;;;;8.85;6.90;;;32.30;99.90;;;;;;5073249;28;20021;-67
2023/06/25 07:47:23;;;;;;;7.20;6.50;;;32.60;92.90;;;;;;5073547;28;20048;-67
2023/06/25 07:49:48;;;;;;;7.32;6.57;;;32.10;44.00;;;;;;5073322;28;20032;-67
2023/06/25 07:52:14;;;;;;;7.53;6.82;;;32.60;92.60;;;;;;5073536;28;20039;-67
2023/06/25 07:54:39;;;;;;;6.72;6.13;;;32.00;99.90;;;;;;5073299;28;20020;-66
2023/06/25 07:57:05;;;;;;;7.88;6.63;;;32.00;87.60;;;;;;5073472;28;20024;-66
2023/06/25 07:59:32;;;;;;;8.13;6.50;;;32.20;87.80;;;;;;5072990;28;20125;-66
2023/06/25 08:01:58;;;;;;;7.38;6.70;;;33.10;24.70;;;;;;5073030;28;20028;-67
2023/06/25 08:04:23;;;;;;;6.68;6.10;;;33.10;1.00;;;;;;5073368;28;20032;-67
2023/06/25 08:06:49;;;;;;;7.32;6.60;;;32.90;24.70;;;;;;5073117;28;20466;-67
2023/06/25 08:09:15;;;;;;;7.05;6.35;;;32.40;8.90;;;;;;5073416;28;20028;-67
2023/06/25 08:11:40;;;;;;;7.05;6.35;;;32.30;30.90;;;;;;5073086;28;20036;-67
2023/06/25 08:14:08;;;;;;;7.47;6.82;;;33.20;47.00;;;;;;5073108;28;20097;-67
2023/06/25 08:16:34;;;;;;;6.85;6.25;;;33.50;13.20;;;;;;5074435;28;20490;-67
2023/06/25 08:19:00;;;;;;;6.32;5.72;;;33.30;32.40;;;;;;5077324;28;20055;-67
2023/06/25 08:21:26;;;;;;;6.75;6.15;;;35.00;99.90;;;;;;5077269;28;20028;-67
2023/06/25 08:23:52;;;;;;;7.25;6.55;;;34.10;99.90;;;;;;5077112;28;20457;-67
2023/06/25 08:26:17;;;;;;;6.95;6.35;;;34.60;99.90;;;;;;5077041;28;20056;-67
2023/06/25 08:28:43;;;;;;;6.50;5.80;;;33.80;99.90;;;;;;5077029;28;20032;-67
2023/06/25 08:31:10;;;;;;;7.00;6.28;;;33.80;99.90;;;;;;5076942;28;20565;-67
2023/06/25 08:33:36;;;;;;;6.93;6.32;;;33.60;99.90;;;;;;5077086;28;20393;-67
2023/06/25 08:36:02;;;;;;;6.40;5.30;;;34.30;99.90;;;;;;5076816;28;20028;-67
2023/06/25 08:38:28;;;;;;;6.70;6.07;;;34.20;99.90;;;;;;5076742;28;20039;-67
2023/06/25 08:40:55;;;;;;;6.15;5.60;;;33.70;99.90;;;;;;5076637;28;20033;-67
2023/06/25 08:43:20;;;;;;;7.10;5.88;;;34.00;99.90;;;;;;5076567;28;20119;-67
2023/06/25 08:45:47;;;;;;;7.38;5.47;;;33.70;99.90;;;;;;5076679;28;20582;-66
2023/06/25 08:48:13;;;;;;;6.40;5.80;;;33.70;99.90;;;;;;5076744;28;20025;-67
2023/06/25 08:50:42;;;;;;;6.30;5.70;;;33.90;99.90;;;;;;5076662;28;20032;-66
2023/06/25 08:53:08;;;;;;;7.95;5.32;;;33.00;99.90;;;;;;5076497;28;20115;-66
2023/06/25 08:55:34;;;;;;;6.72;6.00;;;32.90;99.90;;;;;;5076426;28;20525;-66
2023/06/25 08:58:00;;;;;;;7.13;5.97;;;33.30;99.90;;;;;;5076380;28;20027;-66
2023/06/25 09:00:26;;;;;;;7.45;6.28;;;32.90;99.90;;;;;;5076054;28;20120;-66
2023/06/25 09:02:53;;;;;;;6.40;5.80;;;32.60;99.90;;;;;;5076304;28;20024;-66
2023/06/25 09:05:25;;;;;;;8.40;5.97;;;32.40;99.90;;;;;;5076448;28;20448;-66
2023/06/25 09:07:50;;;;;;;6.55;6.05;;;32.90;99.90;;;;;;5076484;28;20027;-66
2023/06/25 09:10:16;;;;;;;6.13;5.50;;;33.00;99.90;;;;;;5076269;28;20474;-66
2023/06/25 09:12:47;;;;;;;6.75;6.10;;;34.20;99.90;;;;;;5076381;28;20036;-66
2023/06/25 09:15:17;;;;;;;6.82;5.53;;;33.80;99.90;;;;;;5075003;28;20099;-66
2023/06/25 09:17:43;;;;;;;7.70;6.20;;;35.30;99.90;;;;;;5076108;28;20591;-67
2023/06/25 09:20:09;;;;;;;7.22;5.95;;;35.30;99.90;;;;;;5076144;28;20025;-66
2023/06/25 09:22:48;;;;;;;6.88;6.18;;;34.70;99.90;;;;;;5075917;28;20524;-66
2023/06/25 09:25:14;;;;;;;6.95;6.20;;;;;;;;;;5076040;28;20032;-66
2023/06/25 09:27:40;;;;;;;8.52;5.57;;;;;;;;;;5075347;28;20029;-66
2023/06/25 09:30:10;;;;;;;7.00;5.97;;;33.30;99.90;;;;;;5075877;28;20021;-66
2023/06/25 09:32:42;;;;;;;7.13;5.95;;;;;;;;;;5075932;28;20027;-66
2023/06/25 09:35:08;;;;;;;6.53;5.97;;;;;;;;;;5075792;28;20064;-67
2023/06/25 09:37:36;;;;;;;6.65;5.80;;;;;;;;;;5075711;28;20025;-66
2023/06/25 09:40:02;;;;;;;6.30;5.80;;;33.40;99.90;;;;;;5075565;28;20478;-66
2023/06/25 09:42:28;;;;;;;6.90;5.50;;;33.80;99.90;;;;;;5075821;28;20039;-66
2023/06/25 09:44:54;;;;;;;6.70;6.10;;;33.30;99.90;;;;;;5075558;28;20048;-67
2023/06/25 09:47:20;;;;;;;6.35;5.75;;;32.90;99.90;;;;;;5075548;28;20029;-67
2023/06/25 09:49:48;;;;;;;6.38;5.80;;;32.90;99.90;;;;;;5075646;28;20120;-67
2023/06/25 09:52:16;;;;;;;7.10;6.00;;;33.50;99.90;;;;;;5075518;28;20028;-67
2023/06/25 09:54:44;;;;;;;8.02;5.90;;;;;;;;;;5075306;28;20033;-67
2023/06/25 09:57:14;;;;;;;5.80;5.30;;;;;;;;;;5075413;28;20028;-67
2023/06/25 09:59:42;;;;;;;7.10;6.05;;;;;;;;;;5074971;28;20506;-67
2023/06/25 10:02:12;;;;;;;5.85;5.20;;;;;;;;;;5075111;28;20044;-67
2023/06/25 10:04:38;;;;;;;8.70;6.35;;;;;;;;;;5075009;28;20056;-67
2023/06/25 10:07:05;;;;;;;6.55;6.00;;;;;;;;;;5075370;28;20056;-67
2023/06/25 10:09:30;;;;;;;8.15;5.63;;;34.80;99.90;;;;;;5075057;28;20016;-67
2023/06/25 10:11:57;;;;;;;6.07;5.38;;;35.90;76.60;;;;;;5075054;28;20101;-67
2023/06/25 10:14:24;;;;;;;5.55;5.13;;;35.70;1.00;;;;;;5075015;28;20547;-67
2023/06/25 10:16:53;;;;;;;5.75;5.25;;;35.80;1.00;;;;;;5074905;28;20025;-67
2023/06/25 10:19:22;;;;;;;6.20;4.93;;;35.50;1.00;;;;;;5073699;28;20394;-67
2023/06/25 10:22:15;;;;;;;6.50;5.90;;;36.20;1.00;;;;;;5074892;28;20031;-67
2023/06/25 10:24:41;;;;;;;;;;;36.20;1.00;;;;;;5074475;28;20107;-67
2023/06/25 10:27:28;;;;;;;6.05;5.55;;;35.20;1.00;;;;;;5074655;28;19905;-67
2023/06/25 10:29:56;;;;;;;6.78;5.70;;;34.50;1.00;;;;;;5074551;28;20073;-67
2023/06/25 10:32:24;;;;;;;6.40;5.80;;;34.10;1.00;;;;;;5074650;28;20050;-67
2023/06/25 10:34:56;;;;;;;5.93;5.43;;;34.60;1.00;;;;;;5074583;28;20508;-67
2023/06/25 10:37:27;;;;;;;6.72;5.72;;;34.60;12.60;;;;;;5074678;28;20024;-67
2023/06/25 10:40:01;;;;;;;5.82;5.30;;;33.90;22.70;;;;;;5073656;28;20082;-67
2023/06/25 10:42:30;;;;;;;6.82;5.32;;;34.10;1.00;;;;;;5074606;28;20033;-67
2023/06/25 10:44:55;;;;;;;6.63;5.00;;;33.70;1.00;;;;;;5074588;28;20032;-67
2023/06/25 10:47:21;;;;;;;6.88;5.30;;;33.90;1.00;;;;;;5074576;28;20024;-67
2023/06/25 10:49:46;;;;;;;5.90;5.40;;;34.30;1.00;;;;;;5074286;28;20025;-67
2023/06/25 10:52:12;;;;;;;5.88;5.32;;;34.00;1.00;;;;;;5074445;28;20070;-67
2023/06/25 10:54:37;;;;;;;6.93;6.18;;;34.00;1.00;;;;;;5074254;28;20033;-67
2023/06/25 10:57:12;;;;;;;5.93;5.43;;;33.40;1.00;;;;;;5074089;28;20386;-67
2023/06/25 10:59:38;;;;;;;6.60;6.00;;;33.40;10.60;;;;;;5072837;28;20044;-67
2023/06/25 11:02:21;;;;;;;7.60;5.75;;;;;;;;;;5072757;28;20040;-67
2023/06/25 11:04:55;;;;;;;7.03;6.43;;;;;;;;;;5074009;28;20031;-66
2023/06/25 11:07:22;;;;;;;7.30;6.70;;;;;;;;;;5073854;28;20085;-66
2023/06/25 11:09:52;;;;;;;6.70;5.95;;;;;;;;;;5074206;28;20028;-66
2023/06/25 11:12:18;;;;;;;6.38;5.78;;;;;;;;;;5074144;28;20028;-66
2023/06/25 11:14:44;;;;;;;6.00;5.47;;;;;;;;;;5073842;28;20393;-67
2023/06/25 11:17:13;;;;;;;6.43;5.90;;;;;;;;;;5074058;28;20031;-66
2023/06/25 11:19:39;;;;;;;6.47;5.60;;;;;;;;;;5074067;28;20157;-67
2023/06/25 11:22:07;;;;;;;6.25;5.65;;;;;;;;;;5073733;28;20464;-67
2023/06/25 11:24:37;;;;;;;7.57;6.22;;;32.60;99.90;;;;;;5072429;28;20028;-67
2023/06/25 11:27:03;;;;;;;5.72;5.22;;;33.00;99.90;;;;;;5073573;28;20032;-66
2023/06/25 11:29:36;;;;;;;6.10;5.50;;;32.70;99.90;;;;;;5073741;28;20033;-67
2023/06/25 11:32:05;;;;;;;5.93;5.43;;;33.20;99.90;;;;;;5072307;28;20514;-67
2023/06/25 11:34:32;;;;;;;6.13;5.63;;;33.70;99.90;;;;;;5073593;28;20486;-66
2023/06/25 11:37:09;;;;;;;9.20;6.45;;;33.30;99.90;;;;;;5073700;28;20040;-66
2023/06/25 11:39:52;;;;;;;6.60;5.80;;;;;;;;;;5072165;28;20486;-66
2023/06/25 11:42:23;;;;;;;8.67;5.73;;;;;;;;;;5073365;28;20390;-66
2023/06/25 11:45:05;;;;;;;6.53;5.90;;;;;;;;;;5073369;28;20074;-66
2023/06/25 11:47:31;;;;;;;6.45;5.93;;;;;;;;;;5073372;28;20103;-66
2023/06/25 11:49:58;;;;;;;6.15;5.65;;;;;;;;;;5073050;28;20490;-66
2023/06/25 11:52:24;;;;;;;6.85;6.00;;;;;;;;;;5073318;28;20024;-66
2023/06/25 11:54:50;;;;;;;6.32;5.70;;;;;;;;;;5073341;28;20032;-67
2023/06/25 11:57:17;;;;;;;8.00;6.15;;;;;;;;;;5073113;28;20486;-66
2023/06/25 11:59:43;;;;;;;6.82;6.20;;;;;;;;;;5073051;28;20052;-66
2023/06/25 12:02:10;;;;;;;6.60;5.60;;;;;;;;;;5073293;28;20402;-66
2023/06/25 12:04:36;;;;;;;5.43;4.93;;;;;;;;;;5073116;28;20033;-66
2023/06/25 12:07:03;;;;;;;6.45;5.75;;;;;;;;;;5073117;28;20051;-66
2023/06/25 12:09:29;;;;;;;6.57;5.95;;;;;;;;;;5072130;28;20028;-66
2023/06/25 12:11:55;;;;;;;7.13;5.97;;;;;;;;;;5073124;28;20073;-66
2023/06/25 12:14:22;;;;;;;6.53;5.93;;;;;;;;;;5073141;28;20458;-66
2023/06/25 12:16:48;;;;;;;7.22;6.22;;;;;;;;;;5073325;28;20028;-66
2023/06/25 12:19:15;;;;;;;7.47;6.18;;;;;;;;;;5073193;28;20512;-66
2023/06/25 12:21:41;;;;;;;6.57;5.97;;;;;;;;;;5072989;28;20025;-66
2023/06/25 12:24:07;;;;;;;6.35;5.72;;;;;;;;;;5072962;28;20142;-66
2023/06/25 12:26:33;;;;;;;6.72;5.82;;;;;;;;;;5072999;28;20070;-66
2023/06/25 12:29:01;;;;;;;7.05;5.55;;;;;;;;;;5072954;28;20417;-66
2023/06/25 12:31:27;;;;;;;6.60;5.95;;;;;;;;;;5073143;28;20476;-66
2023/06/25 12:33:53;;;;;;;6.75;5.50;;;;;;;;;;5072929;28;20036;-66
2023/06/25 12:36:19;;;;;;;6.38;5.75;;;;;;;;;;5072926;28;20394;-66
2023/06/25 12:38:45;;;;;;;5.90;5.40;;;;;;;;;;5072880;28;20032;-66
2023/06/25 12:41:11;;;;;;;6.22;5.63;;;;;;;;;;5072844;28;20020;-66
2023/06/25 12:43:37;;;;;;;7.72;5.78;;;;;;;;;;5072783;28;20474;-66
2023/06/25 12:46:04;;;;;;;6.00;5.40;;;;;;;;;;5072761;28;20028;-66
2023/06/25 12:48:30;;;;;;;6.80;5.72;;;;;;;;;;5072751;28;20081;-66
2023/06/25 12:50:56;;;;;;;6.35;5.80;;;;;;;;;;5072997;28;20553;-66
2023/06/25 12:53:22;;;;;;;6.43;5.80;;;;;;;;;;5072716;28;20068;-66
2023/06/25 12:55:48;;;;;;;6.45;5.85;;;;;;;;;;5072736;28;20475;-66
2023/06/25 12:58:14;;;;;;;6.40;5.80;;;;;;;;;;5072472;28;20555;-66